| Date | Time | Temp. (oF) | Dew Point (oF) | Rel. Hum. (%) | Press. (in.) | Wind Dir. | Wind Speed (mph) | Hourly Rainfall (in.) |
|
|---|---|---|---|---|---|---|---|---|---|
| 1 | 11/01 | 00:00 | 55 | 49 | 81 | 29.90 | SSE | 1 | 0.00 |
| 2 | 10/31 | 23:00 | 55 | 49 | 81 | 29.91 | S | 1 | 0.00 |
| 3 | 10/31 | 22:00 | 56 | 48 | 77 | 29.91 | SSW | 3 | 0.00 |
| 4 | 10/31 | 21:00 | 56 | 48 | 75 | 29.90 | SSE | 5 | 0.00 |
| 5 | 10/31 | 20:00 | 57 | 48 | 72 | 29.90 | S | 5 | 0.00 |
| 6 | 10/31 | 19:00 | 58 | 47 | 67 | 29.90 | S | 5 | 0.00 |
| 7 | 10/31 | 18:00 | 61 | 46 | 60 | 29.89 | SSE | 4 | 0.00 |
| 8 | 10/31 | 17:00 | 65 | 48 | 56 | 29.88 | SSE | 4 | 0.00 |
| 9 | 10/31 | 16:00 | 67 | 47 | 50 | 29.89 | SSE | 9 | 0.00 |
| 10 | 10/31 | 15:00 | 67 | 48 | 51 | 29.90 | S | 7 | 0.00 |
| 11 | 10/31 | 14:00 | 65 | 46 | 52 | 29.93 | S | 7 | 0.00 |
| 12 | 10/31 | 13:00 | 62 | 47 | 59 | 29.97 | E | 3 | 0.00 |
| 13 | 10/31 | 12:00 | 58 | 48 | 70 | 30.01 | SSE | 8 | 0.00 |
| 14 | 10/31 | 11:00 | 54 | 47 | 79 | 30.02 | SE | 3 | 0.00 |
| 15 | 10/31 | 10:00 | 49 | 47 | 94 | 30.05 | S | 7 | 0.00 |
| 16 | 10/31 | 09:00 | 43 | 42 | 100 | 30.06 | SE | 1 | 0.00 |
| 17 | 10/31 | 08:00 | 38 | 37 | 99 | 30.06 | SE | 1 | 0.00 |
| 18 | 10/31 | 07:00 | 37 | 36 | 99 | 30.07 | SE | 0 | 0.00 |
| 19 | 10/31 | 06:00 | 36 | 35 | 98 | 30.08 | SE | 2 | 0.00 |
| 20 | 10/31 | 05:00 | 37 | 36 | 99 | 30.09 | SE | 1 | 0.00 |
| 21 | 10/31 | 04:00 | 36 | 35 | 98 | 30.09 | SE | 1 | 0.00 |
| 22 | 10/31 | 03:00 | 36 | 35 | 98 | 30.10 | SE | 1 | 0.00 |
| 23 | 10/31 | 02:00 | 37 | 36 | 97 | 30.10 | SE | 1 | 0.00 |
| 24 | 10/31 | 01:00 | 37 | 35 | 96 | 30.12 | SE | 1 | 0.00 |